sensor_id;sensor_type;location;lat;lon;timestamp;temperature;humidity
7814;DHT22;3952;48.364;16.022;2022-10-16T00:01:34;12.50;99.90
7814;DHT22;3952;48.364;16.022;2022-10-16T00:04:02;12.40;99.90
7814;DHT22;3952;48.364;16.022;2022-10-16T00:06:30;12.40;99.90
7814;DHT22;3952;48.364;16.022;2022-10-16T00:08:57;12.40;99.90
7814;DHT22;3952;48.364;16.022;2022-10-16T00:11:28;12.40;99.90
7814;DHT22;3952;48.364;16.022;2022-10-16T00:13:57;12.40;99.90
7814;DHT22;3952;48.364;16.022;2022-10-16T00:16:25;12.40;99.90
7814;DHT22;3952;48.364;16.022;2022-10-16T00:18:53;12.30;99.90
7814;DHT22;3952;48.364;16.022;2022-10-16T00:21:23;12.30;99.90
7814;DHT22;3952;48.364;16.022;2022-10-16T00:23:51;12.20;99.90
7814;DHT22;3952;48.364;16.022;2022-10-16T00:26:19;12.20;99.90
7814;DHT22;3952;48.364;16.022;2022-10-16T00:28:48;12.20;99.90
7814;DHT22;3952;48.364;16.022;2022-10-16T00:31:17;12.10;99.90
7814;DHT22;3952;48.364;16.022;2022-10-16T00:33:44;12.10;99.90
7814;DHT22;3952;48.364;16.022;2022-10-16T00:36:14;12.10;99.90
7814;DHT22;3952;48.364;16.022;2022-10-16T00:38:41;12.10;99.90
7814;DHT22;3952;48.364;16.022;2022-10-16T00:41:11;12.00;99.90
7814;DHT22;3952;48.364;16.022;2022-10-16T00:43:42;11.90;99.90
7814;DHT22;3952;48.364;16.022;2022-10-16T00:46:15;11.80;99.90
7814;DHT22;3952;48.364;16.022;2022-10-16T00:48:49;11.80;99.90
7814;DHT22;3952;48.364;16.022;2022-10-16T00:51:21;11.80;99.90
7814;DHT22;3952;48.364;16.022;2022-10-16T00:53:50;11.70;99.90
7814;DHT22;3952;48.364;16.022;2022-10-16T00:56:18;11.70;99.90
7814;DHT22;3952;48.364;16.022;2022-10-16T00:58:45;11.60;99.90
7814;DHT22;3952;48.364;16.022;2022-10-16T01:01:14;11.60;99.90
7814;DHT22;3952;48.364;16.022;2022-10-16T01:03:41;11.60;99.90
7814;DHT22;3952;48.364;16.022;2022-10-16T01:06:22;11.60;99.90
7814;DHT22;3952;48.364;16.022;2022-10-16T01:09:08;11.60;99.90
7814;DHT22;3952;48.364;16.022;2022-10-16T01:11:41;11.60;99.90
7814;DHT22;3952;48.364;16.022;2022-10-16T01:14:17;11.60;99.90
7814;DHT22;3952;48.364;16.022;2022-10-16T01:16:51;11.60;99.90
7814;DHT22;3952;48.364;16.022;2022-10-16T01:19:31;11.60;99.90
7814;DHT22;3952;48.364;16.022;2022-10-16T01:22:03;11.60;99.90
7814;DHT22;3952;48.364;16.022;2022-10-16T01:24:39;11.60;99.90
7814;DHT22;3952;48.364;16.022;2022-10-16T01:27:13;11.60;99.90
7814;DHT22;3952;48.364;16.022;2022-10-16T01:29:51;11.70;99.90
7814;DHT22;3952;48.364;16.022;2022-10-16T01:32:24;11.70;99.90
7814;DHT22;3952;48.364;16.022;2022-10-16T01:34:58;11.70;99.90
7814;DHT22;3952;48.364;16.022;2022-10-16T01:37:32;11.70;99.90
7814;DHT22;3952;48.364;16.022;2022-10-16T01:40:06;11.70;99.90
7814;DHT22;3952;48.364;16.022;2022-10-16T01:42:39;11.80;99.90
7814;DHT22;3952;48.364;16.022;2022-10-16T01:45:10;11.80;99.90
7814;DHT22;3952;48.364;16.022;2022-10-16T01:47:39;11.80;99.90
7814;DHT22;3952;48.364;16.022;2022-10-16T01:50:08;11.80;99.90
7814;DHT22;3952;48.364;16.022;2022-10-16T01:52:38;11.80;99.90
7814;DHT22;3952;48.364;16.022;2022-10-16T01:55:09;11.80;99.90
7814;DHT22;3952;48.364;16.022;2022-10-16T01:57:42;11.80;99.90
7814;DHT22;3952;48.364;16.022;2022-10-16T02:00:12;11.80;99.90
7814;DHT22;3952;48.364;16.022;2022-10-16T02:02:42;11.90;99.90
7814;DHT22;3952;48.364;16.022;2022-10-16T02:05:15;11.90;99.90
7814;DHT22;3952;48.364;16.022;2022-10-16T02:07:43;11.90;99.90
7814;DHT22;3952;48.364;16.022;2022-10-16T02:10:10;11.90;99.90
7814;DHT22;3952;48.364;16.022;2022-10-16T02:12:42;11.90;99.90
7814;DHT22;3952;48.364;16.022;2022-10-16T02:15:11;11.90;99.90
7814;DHT22;3952;48.364;16.022;2022-10-16T02:17:38;11.90;99.90
7814;DHT22;3952;48.364;16.022;2022-10-16T02:20:06;11.90;99.90
7814;DHT22;3952;48.364;16.022;2022-10-16T02:22:35;11.90;99.90
7814;DHT22;3952;48.364;16.022;2022-10-16T02:25:07;11.90;99.90
7814;DHT22;3952;48.364;16.022;2022-10-16T02:27:44;11.90;99.90
7814;DHT22;3952;48.364;16.022;2022-10-16T02:30:16;11.90;99.90
7814;DHT22;3952;48.364;16.022;2022-10-16T02:32:48;11.80;99.90
7814;DHT22;3952;48.364;16.022;2022-10-16T02:35:18;11.80;99.90
7814;DHT22;3952;48.364;16.022;2022-10-16T02:37:46;11.80;99.90
7814;DHT22;3952;48.364;16.022;2022-10-16T02:40:15;11.80;99.90
7814;DHT22;3952;48.364;16.022;2022-10-16T02:42:44;11.80;99.90
7814;DHT22;3952;48.364;16.022;2022-10-16T02:45:11;11.90;99.90
7814;DHT22;3952;48.364;16.022;2022-10-16T02:47:38;11.80;99.90
7814;DHT22;3952;48.364;16.022;2022-10-16T02:50:06;11.80;99.90
7814;DHT22;3952;48.364;16.022;2022-10-16T02:52:34;11.80;99.90
7814;DHT22;3952;48.364;16.022;2022-10-16T02:55:02;11.80;99.90
7814;DHT22;3952;48.364;16.022;2022-10-16T02:57:29;11.80;99.90
7814;DHT22;3952;48.364;16.022;2022-10-16T02:59:58;11.80;99.90
7814;DHT22;3952;48.364;16.022;2022-10-16T03:02:26;11.80;99.90
7814;DHT22;3952;48.364;16.022;2022-10-16T03:04:53;11.80;99.90
7814;DHT22;3952;48.364;16.022;2022-10-16T03:07:20;11.80;99.90
7814;DHT22;3952;48.364;16.022;2022-10-16T03:09:47;11.80;99.90
7814;DHT22;3952;48.364;16.022;2022-10-16T03:12:14;11.70;99.90
7814;DHT22;3952;48.364;16.022;2022-10-16T03:14:42;11.80;99.90
7814;DHT22;3952;48.364;16.022;2022-10-16T03:17:10;11.80;99.90
7814;DHT22;3952;48.364;16.022;2022-10-16T03:19:38;11.80;99.90
7814;DHT22;3952;48.364;16.022;2022-10-16T03:22:05;11.80;99.90
7814;DHT22;3952;48.364;16.022;2022-10-16T03:24:33;11.80;99.90
7814;DHT22;3952;48.364;16.022;2022-10-16T03:27:00;11.90;99.90
7814;DHT22;3952;48.364;16.022;2022-10-16T03:29:27;11.90;99.90
7814;DHT22;3952;48.364;16.022;2022-10-16T03:31:55;11.90;99.90
7814;DHT22;3952;48.364;16.022;2022-10-16T03:34:23;11.90;99.90
7814;DHT22;3952;48.364;16.022;2022-10-16T03:36:51;11.90;99.90
7814;DHT22;3952;48.364;16.022;2022-10-16T03:39:18;11.90;99.90
7814;DHT22;3952;48.364;16.022;2022-10-16T03:41:45;11.90;99.90
7814;DHT22;3952;48.364;16.022;2022-10-16T03:44:13;11.80;99.90
7814;DHT22;3952;48.364;16.022;2022-10-16T03:46:40;11.80;99.90
7814;DHT22;3952;48.364;16.022;2022-10-16T03:49:07;11.80;99.90
7814;DHT22;3952;48.364;16.022;2022-10-16T03:51:36;11.80;99.90
7814;DHT22;3952;48.364;16.022;2022-10-16T03:54:03;11.80;99.90
7814;DHT22;3952;48.364;16.022;2022-10-16T03:56:30;11.80;99.90
7814;DHT22;3952;48.364;16.022;2022-10-16T03:58:57;11.80;99.90
7814;DHT22;3952;48.364;16.022;2022-10-16T04:01:24;11.80;99.90
7814;DHT22;3952;48.364;16.022;2022-10-16T04:03:52;11.80;99.90
7814;DHT22;3952;48.364;16.022;2022-10-16T04:06:19;11.80;99.90
7814;DHT22;3952;48.364;16.022;2022-10-16T04:08:48;11.80;99.90
7814;DHT22;3952;48.364;16.022;2022-10-16T04:11:15;11.80;99.90
7814;DHT22;3952;48.364;16.022;2022-10-16T04:13:42;11.80;99.90
7814;DHT22;3952;48.364;16.022;2022-10-16T04:16:09;11.80;99.90
7814;DHT22;3952;48.364;16.022;2022-10-16T04:18:37;11.80;99.90
7814;DHT22;3952;48.364;16.022;2022-10-16T04:21:05;11.80;99.90
7814;DHT22;3952;48.364;16.022;2022-10-16T04:23:33;11.80;99.90
7814;DHT22;3952;48.364;16.022;2022-10-16T04:26:01;11.80;99.90
7814;DHT22;3952;48.364;16.022;2022-10-16T04:28:28;11.80;99.90
7814;DHT22;3952;48.364;16.022;2022-10-16T04:30:56;11.80;99.90
7814;DHT22;3952;48.364;16.022;2022-10-16T04:33:23;11.80;99.90
7814;DHT22;3952;48.364;16.022;2022-10-16T04:35:56;11.80;99.90
7814;DHT22;3952;48.364;16.022;2022-10-16T04:38:24;11.70;99.90
7814;DHT22;3952;48.364;16.022;2022-10-16T04:40:51;11.80;99.90
7814;DHT22;3952;48.364;16.022;2022-10-16T04:43:20;11.90;99.90
7814;DHT22;3952;48.364;16.022;2022-10-16T04:45:47;11.80;99.90
7814;DHT22;3952;48.364;16.022;2022-10-16T04:48:16;11.80;99.90
7814;DHT22;3952;48.364;16.022;2022-10-16T04:50:43;11.80;99.90
7814;DHT22;3952;48.364;16.022;2022-10-16T04:53:10;11.80;99.90
7814;DHT22;3952;48.364;16.022;2022-10-16T04:55:38;11.80;99.90
7814;DHT22;3952;48.364;16.022;2022-10-16T04:58:05;11.70;99.90
7814;DHT22;3952;48.364;16.022;2022-10-16T05:00:34;11.80;99.90
7814;DHT22;3952;48.364;16.022;2022-10-16T05:03:02;11.80;99.90
7814;DHT22;3952;48.364;16.022;2022-10-16T05:05:33;11.80;99.90
7814;DHT22;3952;48.364;16.022;2022-10-16T05:08:00;11.80;99.90
7814;DHT22;3952;48.364;16.022;2022-10-16T05:10:27;11.80;99.90
7814;DHT22;3952;48.364;16.022;2022-10-16T05:12:54;11.90;99.90
7814;DHT22;3952;48.364;16.022;2022-10-16T05:15:21;11.90;99.90
7814;DHT22;3952;48.364;16.022;2022-10-16T05:17:54;11.90;99.90
7814;DHT22;3952;48.364;16.022;2022-10-16T05:20:21;11.90;99.90
7814;DHT22;3952;48.364;16.022;2022-10-16T05:22:49;11.90;99.90
7814;DHT22;3952;48.364;16.022;2022-10-16T05:25:16;11.90;99.90
7814;DHT22;3952;48.364;16.022;2022-10-16T05:27:46;11.90;99.90
7814;DHT22;3952;48.364;16.022;2022-10-16T05:30:13;11.90;99.90
7814;DHT22;3952;48.364;16.022;2022-10-16T05:32:41;11.90;99.90
7814;DHT22;3952;48.364;16.022;2022-10-16T05:35:09;11.80;99.90
7814;DHT22;3952;48.364;16.022;2022-10-16T05:37:36;11.90;99.90
7814;DHT22;3952;48.364;16.022;2022-10-16T05:40:04;11.90;99.90
7814;DHT22;3952;48.364;16.022;2022-10-16T05:42:32;11.90;99.90
7814;DHT22;3952;48.364;16.022;2022-10-16T05:44:59;11.90;99.90
7814;DHT22;3952;48.364;16.022;2022-10-16T05:47:26;12.00;99.90
7814;DHT22;3952;48.364;16.022;2022-10-16T05:49:53;12.00;99.90
7814;DHT22;3952;48.364;16.022;2022-10-16T05:52:22;12.00;99.90
7814;DHT22;3952;48.364;16.022;2022-10-16T05:54:49;12.00;99.90
7814;DHT22;3952;48.364;16.022;2022-10-16T05:57:16;11.90;99.90
7814;DHT22;3952;48.364;16.022;2022-10-16T05:59:44;11.90;99.90
7814;DHT22;3952;48.364;16.022;2022-10-16T06:02:13;11.90;99.90
7814;DHT22;3952;48.364;16.022;2022-10-16T06:04:40;12.00;99.90
7814;DHT22;3952;48.364;16.022;2022-10-16T06:07:08;12.00;99.90
7814;DHT22;3952;48.364;16.022;2022-10-16T06:09:36;12.00;99.90
7814;DHT22;3952;48.364;16.022;2022-10-16T06:12:04;12.00;99.90
7814;DHT22;3952;48.364;16.022;2022-10-16T06:14:31;12.00;99.90
7814;DHT22;3952;48.364;16.022;2022-10-16T06:16:58;12.10;99.90
7814;DHT22;3952;48.364;16.022;2022-10-16T06:19:25;12.10;99.90
7814;DHT22;3952;48.364;16.022;2022-10-16T06:21:52;12.10;99.90
7814;DHT22;3952;48.364;16.022;2022-10-16T06:24:19;12.10;99.90
7814;DHT22;3952;48.364;16.022;2022-10-16T06:26:48;12.10;99.90
7814;DHT22;3952;48.364;16.022;2022-10-16T06:29:15;12.10;99.90
7814;DHT22;3952;48.364;16.022;2022-10-16T06:31:42;12.10;99.90
7814;DHT22;3952;48.364;16.022;2022-10-16T06:34:10;12.20;99.90
7814;DHT22;3952;48.364;16.022;2022-10-16T06:36:37;12.20;99.90
7814;DHT22;3952;48.364;16.022;2022-10-16T06:39:05;12.20;99.90
7814;DHT22;3952;48.364;16.022;2022-10-16T06:41:33;12.20;99.90
7814;DHT22;3952;48.364;16.022;2022-10-16T06:44:05;12.20;99.90
7814;DHT22;3952;48.364;16.022;2022-10-16T06:46:32;12.30;99.90
7814;DHT22;3952;48.364;16.022;2022-10-16T06:49:00;12.30;99.90
7814;DHT22;3952;48.364;16.022;2022-10-16T06:51:27;12.30;99.90
7814;DHT22;3952;48.364;16.022;2022-10-16T06:53:55;12.30;99.90
7814;DHT22;3952;48.364;16.022;2022-10-16T06:56:25;12.30;99.90
7814;DHT22;3952;48.364;16.022;2022-10-16T06:58:53;12.30;99.90
7814;DHT22;3952;48.364;16.022;2022-10-16T07:01:23;12.30;99.90
7814;DHT22;3952;48.364;16.022;2022-10-16T07:03:50;12.30;99.90
7814;DHT22;3952;48.364;16.022;2022-10-16T07:06:19;12.30;99.90
7814;DHT22;3952;48.364;16.022;2022-10-16T07:08:47;12.30;99.90
7814;DHT22;3952;48.364;16.022;2022-10-16T07:11:16;12.30;99.90
7814;DHT22;3952;48.364;16.022;2022-10-16T07:13:44;12.30;99.90
7814;DHT22;3952;48.364;16.022;2022-10-16T07:16:14;12.30;99.90
7814;DHT22;3952;48.364;16.022;2022-10-16T07:18:44;12.40;99.90
7814;DHT22;3952;48.364;16.022;2022-10-16T07:21:14;12.40;99.90
7814;DHT22;3952;48.364;16.022;2022-10-16T07:23:41;12.40;99.90
7814;DHT22;3952;48.364;16.022;2022-10-16T07:26:10;12.50;99.90
7814;DHT22;3952;48.364;16.022;2022-10-16T07:28:37;12.50;99.90
7814;DHT22;3952;48.364;16.022;2022-10-16T07:31:07;12.60;99.90
7814;DHT22;3952;48.364;16.022;2022-10-16T07:33:37;12.50;99.90
7814;DHT22;3952;48.364;16.022;2022-10-16T07:36:07;12.50;99.90
7814;DHT22;3952;48.364;16.022;2022-10-16T07:38:34;12.50;99.90
7814;DHT22;3952;48.364;16.022;2022-10-16T07:41:03;12.60;99.90
7814;DHT22;3952;48.364;16.022;2022-10-16T07:43:31;12.60;99.90
7814;DHT22;3952;48.364;16.022;2022-10-16T07:45:59;12.60;99.90
7814;DHT22;3952;48.364;16.022;2022-10-16T07:48:27;12.60;99.90
7814;DHT22;3952;48.364;16.022;2022-10-16T07:50:57;12.60;99.90
7814;DHT22;3952;48.364;16.022;2022-10-16T07:53:27;12.60;99.90
7814;DHT22;3952;48.364;16.022;2022-10-16T07:55:57;12.70;99.90
7814;DHT22;3952;48.364;16.022;2022-10-16T07:58:25;12.70;99.90
7814;DHT22;3952;48.364;16.022;2022-10-16T08:00:52;12.70;99.90
7814;DHT22;3952;48.364;16.022;2022-10-16T08:03:19;12.70;99.90
7814;DHT22;3952;48.364;16.022;2022-10-16T08:05:47;12.70;99.90
7814;DHT22;3952;48.364;16.022;2022-10-16T08:08:18;12.60;99.90
7814;DHT22;3952;48.364;16.022;2022-10-16T08:10:47;12.70;99.90
7814;DHT22;3952;48.364;16.022;2022-10-16T08:13:14;12.70;99.90
7814;DHT22;3952;48.364;16.022;2022-10-16T08:15:41;12.80;99.90
7814;DHT22;3952;48.364;16.022;2022-10-16T08:18:09;12.80;99.90
7814;DHT22;3952;48.364;16.022;2022-10-16T08:20:37;12.90;99.90
7814;DHT22;3952;48.364;16.022;2022-10-16T08:23:04;12.90;99.90
7814;DHT22;3952;48.364;16.022;2022-10-16T08:25:34;12.90;99.90
7814;DHT22;3952;48.364;16.022;2022-10-16T08:28:04;12.90;99.90
7814;DHT22;3952;48.364;16.022;2022-10-16T08:30:32;12.90;99.90
7814;DHT22;3952;48.364;16.022;2022-10-16T08:33:00;12.90;99.90
7814;DHT22;3952;48.364;16.022;2022-10-16T08:35:27;12.90;99.90
7814;DHT22;3952;48.364;16.022;2022-10-16T08:37:54;13.00;99.90
7814;DHT22;3952;48.364;16.022;2022-10-16T08:40:24;13.00;99.90
7814;DHT22;3952;48.364;16.022;2022-10-16T08:43:18;13.10;99.90
7814;DHT22;3952;48.364;16.022;2022-10-16T08:46:17;13.10;99.90
7814;DHT22;3952;48.364;16.022;2022-10-16T08:48:49;13.20;99.90
7814;DHT22;3952;48.364;16.022;2022-10-16T08:51:21;13.20;99.90
7814;DHT22;3952;48.364;16.022;2022-10-16T08:53:52;13.30;99.90
7814;DHT22;3952;48.364;16.022;2022-10-16T08:56:21;13.30;99.90
7814;DHT22;3952;48.364;16.022;2022-10-16T08:58:50;13.30;99.90
7814;DHT22;3952;48.364;16.022;2022-10-16T09:01:20;13.40;99.90
7814;DHT22;3952;48.364;16.022;2022-10-16T09:04:07;13.40;99.90
7814;DHT22;3952;48.364;16.022;2022-10-16T09:06:45;13.50;99.90
7814;DHT22;3952;48.364;16.022;2022-10-16T09:09:41;13.50;99.90
7814;DHT22;3952;48.364;16.022;2022-10-16T09:12:19;13.50;99.90
7814;DHT22;3952;48.364;16.022;2022-10-16T09:14:59;13.50;99.90
7814;DHT22;3952;48.364;16.022;2022-10-16T09:17:36;13.60;99.90
7814;DHT22;3952;48.364;16.022;2022-10-16T09:20:20;13.60;99.90
7814;DHT22;3952;48.364;16.022;2022-10-16T09:22:53;13.60;99.90
7814;DHT22;3952;48.364;16.022;2022-10-16T09:25:22;13.60;99.90
7814;DHT22;3952;48.364;16.022;2022-10-16T09:27:52;13.60;99.90
7814;DHT22;3952;48.364;16.022;2022-10-16T09:30:22;13.70;99.90
7814;DHT22;3952;48.364;16.022;2022-10-16T09:32:51;13.70;99.90
7814;DHT22;3952;48.364;16.022;2022-10-16T09:35:21;13.70;99.90
7814;DHT22;3952;48.364;16.022;2022-10-16T09:37:51;13.70;99.90
7814;DHT22;3952;48.364;16.022;2022-10-16T09:40:26;13.80;99.90
7814;DHT22;3952;48.364;16.022;2022-10-16T09:43:01;13.90;99.90
7814;DHT22;3952;48.364;16.022;2022-10-16T09:45:31;13.90;99.90
7814;DHT22;3952;48.364;16.022;2022-10-16T09:48:00;14.00;99.90
7814;DHT22;3952;48.364;16.022;2022-10-16T09:50:28;14.10;99.90
7814;DHT22;3952;48.364;16.022;2022-10-16T09:53:10;14.20;99.90
7814;DHT22;3952;48.364;16.022;2022-10-16T09:55:48;14.20;99.90
7814;DHT22;3952;48.364;16.022;2022-10-16T09:58:16;14.30;99.90
7814;DHT22;3952;48.364;16.022;2022-10-16T10:00:51;14.40;99.90
7814;DHT22;3952;48.364;16.022;2022-10-16T10:03:37;14.40;99.90
7814;DHT22;3952;48.364;16.022;2022-10-16T10:06:15;14.50;99.90
7814;DHT22;3952;48.364;16.022;2022-10-16T10:09:05;14.50;99.90
7814;DHT22;3952;48.364;16.022;2022-10-16T10:11:51;14.60;99.90
7814;DHT22;3952;48.364;16.022;2022-10-16T10:14:31;14.60;99.90
7814;DHT22;3952;48.364;16.022;2022-10-16T10:17:13;14.50;99.90
7814;DHT22;3952;48.364;16.022;2022-10-16T10:19:44;14.60;99.90
7814;DHT22;3952;48.364;16.022;2022-10-16T10:22:25;14.60;99.90
7814;DHT22;3952;48.364;16.022;2022-10-16T10:27:50;14.80;99.90
7814;DHT22;3952;48.364;16.022;2022-10-16T10:30:23;14.50;99.90
7814;DHT22;3952;48.364;16.022;2022-10-16T10:33:05;14.80;99.90
7814;DHT22;3952;48.364;16.022;2022-10-16T10:35:42;14.90;99.90
7814;DHT22;3952;48.364;16.022;2022-10-16T10:38:23;14.90;99.90
7814;DHT22;3952;48.364;16.022;2022-10-16T10:41:00;15.00;99.90
7814;DHT22;3952;48.364;16.022;2022-10-16T10:43:41;15.00;99.90
7814;DHT22;3952;48.364;16.022;2022-10-16T10:46:16;15.10;99.90
7814;DHT22;3952;48.364;16.022;2022-10-16T10:49:06;15.40;99.90
7814;DHT22;3952;48.364;16.022;2022-10-16T10:51:41;15.70;99.90
7814;DHT22;3952;48.364;16.022;2022-10-16T10:54:16;16.00;99.90
7814;DHT22;3952;48.364;16.022;2022-10-16T10:56:51;16.30;99.90
7814;DHT22;3952;48.364;16.022;2022-10-16T10:59:41;16.50;99.90
7814;DHT22;3952;48.364;16.022;2022-10-16T11:02:17;16.70;99.90
7814;DHT22;3952;48.364;16.022;2022-10-16T11:07:51;17.10;99.90
7814;DHT22;3952;48.364;16.022;2022-10-16T11:10:22;17.30;99.90
7814;DHT22;3952;48.364;16.022;2022-10-16T11:12:55;17.30;99.90
7814;DHT22;3952;48.364;16.022;2022-10-16T11:15:27;17.40;99.90
7814;DHT22;3952;48.364;16.022;2022-10-16T11:18:01;17.50;99.90
7814;DHT22;3952;48.364;16.022;2022-10-16T11:20:33;17.60;99.90
7814;DHT22;3952;48.364;16.022;2022-10-16T11:23:06;17.70;99.90
7814;DHT22;3952;48.364;16.022;2022-10-16T11:25:39;17.80;99.90
7814;DHT22;3952;48.364;16.022;2022-10-16T11:28:11;17.80;99.90
7814;DHT22;3952;48.364;16.022;2022-10-16T11:30:45;17.80;99.90
7814;DHT22;3952;48.364;16.022;2022-10-16T11:33:27;17.80;99.90
7814;DHT22;3952;48.364;16.022;2022-10-16T11:36:03;17.90;99.90
7814;DHT22;3952;48.364;16.022;2022-10-16T11:38:37;18.00;99.90
7814;DHT22;3952;48.364;16.022;2022-10-16T11:41:14;18.00;99.90
7814;DHT22;3952;48.364;16.022;2022-10-16T11:43:51;18.10;99.90
7814;DHT22;3952;48.364;16.022;2022-10-16T11:46:22;18.10;99.90
7814;DHT22;3952;48.364;16.022;2022-10-16T11:48:56;18.20;99.90
7814;DHT22;3952;48.364;16.022;2022-10-16T11:51:33;18.20;99.90
7814;DHT22;3952;48.364;16.022;2022-10-16T11:54:07;18.30;99.90
7814;DHT22;3952;48.364;16.022;2022-10-16T11:56:39;18.30;99.90
7814;DHT22;3952;48.364;16.022;2022-10-16T11:59:13;18.40;99.90
7814;DHT22;3952;48.364;16.022;2022-10-16T12:01:47;18.50;99.90
7814;DHT22;3952;48.364;16.022;2022-10-16T12:04:22;18.50;99.90
7814;DHT22;3952;48.364;16.022;2022-10-16T12:06:59;18.60;99.90
7814;DHT22;3952;48.364;16.022;2022-10-16T12:09:31;18.70;99.90
7814;DHT22;3952;48.364;16.022;2022-10-16T12:11:59;18.70;99.90
7814;DHT22;3952;48.364;16.022;2022-10-16T12:14:38;18.80;99.90
7814;DHT22;3952;48.364;16.022;2022-10-16T12:17:24;18.90;99.90
7814;DHT22;3952;48.364;16.022;2022-10-16T12:19:59;19.00;99.90
7814;DHT22;3952;48.364;16.022;2022-10-16T12:22:29;19.00;99.90
7814;DHT22;3952;48.364;16.022;2022-10-16T12:24:58;19.00;99.90
7814;DHT22;3952;48.364;16.022;2022-10-16T12:27:28;19.00;99.90
7814;DHT22;3952;48.364;16.022;2022-10-16T12:29:57;18.90;99.90
7814;DHT22;3952;48.364;16.022;2022-10-16T12:32:30;18.90;99.90
7814;DHT22;3952;48.364;16.022;2022-10-16T12:34:59;18.90;99.90
7814;DHT22;3952;48.364;16.022;2022-10-16T12:37:32;19.10;99.90
7814;DHT22;3952;48.364;16.022;2022-10-16T12:40:12;19.20;99.90
7814;DHT22;3952;48.364;16.022;2022-10-16T12:42:40;19.40;99.90
7814;DHT22;3952;48.364;16.022;2022-10-16T12:45:25;19.40;99.90
7814;DHT22;3952;48.364;16.022;2022-10-16T12:47:54;19.40;99.90
7814;DHT22;3952;48.364;16.022;2022-10-16T12:50:28;19.40;99.90
7814;DHT22;3952;48.364;16.022;2022-10-16T12:52:59;19.40;99.90
7814;DHT22;3952;48.364;16.022;2022-10-16T12:55:33;19.50;99.90
7814;DHT22;3952;48.364;16.022;2022-10-16T12:58:09;19.70;99.90
7814;DHT22;3952;48.364;16.022;2022-10-16T13:00:45;19.80;99.90
7814;DHT22;3952;48.364;16.022;2022-10-16T13:03:40;19.80;99.90
7814;DHT22;3952;48.364;16.022;2022-10-16T13:06:22;19.80;99.90
7814;DHT22;3952;48.364;16.022;2022-10-16T13:09:14;19.80;99.90
7814;DHT22;3952;48.364;16.022;2022-10-16T13:11:57;19.80;99.90
7814;DHT22;3952;48.364;16.022;2022-10-16T13:17:32;19.70;99.90
7814;DHT22;3952;48.364;16.022;2022-10-16T13:20:12;19.60;99.90
7814;DHT22;3952;48.364;16.022;2022-10-16T13:22:51;19.70;99.90
7814;DHT22;3952;48.364;16.022;2022-10-16T13:25:33;19.70;99.90
7814;DHT22;3952;48.364;16.022;2022-10-16T13:28:05;19.70;99.90
7814;DHT22;3952;48.364;16.022;2022-10-16T13:30:38;19.70;99.90
7814;DHT22;3952;48.364;16.022;2022-10-16T13:33:12;19.70;99.90
7814;DHT22;3952;48.364;16.022;2022-10-16T13:35:48;19.70;99.90
7814;DHT22;3952;48.364;16.022;2022-10-16T13:38:18;19.70;99.90
7814;DHT22;3952;48.364;16.022;2022-10-16T13:40:52;19.70;99.90
7814;DHT22;3952;48.364;16.022;2022-10-16T13:43:23;19.80;99.90
7814;DHT22;3952;48.364;16.022;2022-10-16T13:45:59;19.80;99.90
7814;DHT22;3952;48.364;16.022;2022-10-16T13:48:28;19.80;99.90
7814;DHT22;3952;48.364;16.022;2022-10-16T13:51:03;19.80;99.90
7814;DHT22;3952;48.364;16.022;2022-10-16T13:53:32;19.80;99.90
7814;DHT22;3952;48.364;16.022;2022-10-16T13:56:03;19.80;99.90
7814;DHT22;3952;48.364;16.022;2022-10-16T13:58:31;19.80;99.90
7814;DHT22;3952;48.364;16.022;2022-10-16T14:00:59;19.80;99.90
7814;DHT22;3952;48.364;16.022;2022-10-16T14:03:28;19.80;99.90
7814;DHT22;3952;48.364;16.022;2022-10-16T14:05:59;19.90;99.90
7814;DHT22;3952;48.364;16.022;2022-10-16T14:08:29;19.90;99.90
7814;DHT22;3952;48.364;16.022;2022-10-16T14:10:57;19.90;99.90
7814;DHT22;3952;48.364;16.022;2022-10-16T14:13:31;19.90;99.90
7814;DHT22;3952;48.364;16.022;2022-10-16T14:16:04;19.90;99.90
7814;DHT22;3952;48.364;16.022;2022-10-16T14:18:32;19.90;99.90
7814;DHT22;3952;48.364;16.022;2022-10-16T14:21:05;19.90;99.90
7814;DHT22;3952;48.364;16.022;2022-10-16T14:23:36;19.90;99.90
7814;DHT22;3952;48.364;16.022;2022-10-16T14:26:22;19.90;99.90
7814;DHT22;3952;48.364;16.022;2022-10-16T14:29:13;19.90;99.90
7814;DHT22;3952;48.364;16.022;2022-10-16T14:31:41;19.90;99.90
7814;DHT22;3952;48.364;16.022;2022-10-16T14:34:26;19.90;99.90
7814;DHT22;3952;48.364;16.022;2022-10-16T14:36:54;19.80;99.90
7814;DHT22;3952;48.364;16.022;2022-10-16T14:39:22;19.80;99.90
7814;DHT22;3952;48.364;16.022;2022-10-16T14:41:54;19.80;99.90
7814;DHT22;3952;48.364;16.022;2022-10-16T14:44:29;19.80;99.90
7814;DHT22;3952;48.364;16.022;2022-10-16T14:46:57;19.70;99.90
7814;DHT22;3952;48.364;16.022;2022-10-16T14:49:25;19.70;99.90
7814;DHT22;3952;48.364;16.022;2022-10-16T14:51:53;19.70;99.90
7814;DHT22;3952;48.364;16.022;2022-10-16T14:54:21;19.60;99.90
7814;DHT22;3952;48.364;16.022;2022-10-16T14:56:50;19.60;99.90
7814;DHT22;3952;48.364;16.022;2022-10-16T14:59:21;19.60;99.90
7814;DHT22;3952;48.364;16.022;2022-10-16T15:01:52;19.50;99.90
7814;DHT22;3952;48.364;16.022;2022-10-16T15:04:19;19.50;99.90
7814;DHT22;3952;48.364;16.022;2022-10-16T15:06:46;19.50;99.90
7814;DHT22;3952;48.364;16.022;2022-10-16T15:09:14;19.50;99.90
7814;DHT22;3952;48.364;16.022;2022-10-16T15:11:42;19.40;99.90
7814;DHT22;3952;48.364;16.022;2022-10-16T15:14:12;19.40;99.90
7814;DHT22;3952;48.364;16.022;2022-10-16T15:16:39;19.40;99.90
7814;DHT22;3952;48.364;16.022;2022-10-16T15:19:08;19.40;99.90
7814;DHT22;3952;48.364;16.022;2022-10-16T15:21:35;19.30;99.90
7814;DHT22;3952;48.364;16.022;2022-10-16T15:24:02;19.30;99.90
7814;DHT22;3952;48.364;16.022;2022-10-16T15:26:30;19.30;99.90
7814;DHT22;3952;48.364;16.022;2022-10-16T15:28:57;19.20;99.90
7814;DHT22;3952;48.364;16.022;2022-10-16T15:31:25;19.20;99.90
7814;DHT22;3952;48.364;16.022;2022-10-16T15:33:53;19.20;99.90
7814;DHT22;3952;48.364;16.022;2022-10-16T15:36:29;19.10;99.90
7814;DHT22;3952;48.364;16.022;2022-10-16T15:38:59;19.10;99.90
7814;DHT22;3952;48.364;16.022;2022-10-16T15:41:27;19.10;99.90
7814;DHT22;3952;48.364;16.022;2022-10-16T15:43:54;19.00;99.90
7814;DHT22;3952;48.364;16.022;2022-10-16T15:46:23;19.00;99.90
7814;DHT22;3952;48.364;16.022;2022-10-16T15:48:51;18.90;99.90
7814;DHT22;3952;48.364;16.022;2022-10-16T15:51:22;18.80;99.90
7814;DHT22;3952;48.364;16.022;2022-10-16T15:53:51;18.80;99.90
7814;DHT22;3952;48.364;16.022;2022-10-16T15:56:19;18.70;99.90
7814;DHT22;3952;48.364;16.022;2022-10-16T15:58:47;18.60;99.90
7814;DHT22;3952;48.364;16.022;2022-10-16T16:01:15;18.60;99.90
7814;DHT22;3952;48.364;16.022;2022-10-16T16:03:42;18.50;99.90
7814;DHT22;3952;48.364;16.022;2022-10-16T16:06:11;18.40;99.90
7814;DHT22;3952;48.364;16.022;2022-10-16T16:08:39;18.30;99.90
7814;DHT22;3952;48.364;16.022;2022-10-16T16:11:10;18.20;99.90
7814;DHT22;3952;48.364;16.022;2022-10-16T16:13:38;18.10;99.90
7814;DHT22;3952;48.364;16.022;2022-10-16T16:16:06;17.90;99.90
7814;DHT22;3952;48.364;16.022;2022-10-16T16:18:34;17.80;99.90